Time;durP1;ratioP1;P1;durP2;ratioP2;P2;SDS_P1;SDS_P2;PMS_P1;PMS_P2;Temp;Humidity;BMP_temperature;BMP_pressure;BME280_temperature;BME280_humidity;BME280_pressure;Samples;Min_cycle;Max_cycle;Signal;HPM_P1;HPM_P2
2022/02/14 00:01:18;;;;;;;71.43;8.63;;;6.70;99.90;;;;;;4879246;29;20735;-88
2022/02/14 00:03:43;;;;;;;70.35;9.70;;;6.70;99.90;;;;;;4880754;29;20197;-88
2022/02/14 00:06:09;;;;;;;71.00;9.50;;;6.70;99.90;;;;;;4879623;29;20198;-88
2022/02/14 00:08:35;;;;;;;68.10;9.87;;;6.80;99.90;;;;;;4879203;29;20204;-88
2022/02/14 00:11:00;;;;;;;70.43;9.40;;;6.80;99.90;;;;;;4880579;29;20627;-88
2022/02/14 00:13:26;;;;;;;71.13;11.07;;;6.80;99.90;;;;;;4880299;29;20191;-88
2022/02/14 00:15:52;;;;;;;69.77;9.80;;;6.80;99.90;;;;;;4879328;29;20198;-88
2022/02/14 00:18:20;;;;;;;73.28;10.57;;;6.80;99.90;;;;;;4880617;29;20572;-88
2022/02/14 00:20:46;;;;;;;72.28;9.55;;;6.80;99.90;;;;;;4880622;29;20218;-88
2022/02/14 00:23:12;;;;;;;70.30;11.20;;;6.80;99.90;;;;;;4879765;29;20170;-88
2022/02/14 00:25:38;;;;;;;69.17;9.67;;;6.80;99.90;;;;;;4880074;29;20433;-88
2022/02/14 00:28:04;;;;;;;72.00;11.50;;;6.80;99.90;;;;;;4879352;29;20419;-88
2022/02/14 00:30:30;;;;;;;70.63;9.30;;;6.80;99.90;;;;;;4879935;29;20194;-88
2022/02/14 00:33:05;;;;;;;70.95;11.23;;;6.90;99.90;;;;;;4880231;29;20215;-88
2022/02/14 00:35:36;;;;;;;68.65;9.73;;;6.90;99.90;;;;;;4879198;29;20190;-88
2022/02/14 00:38:03;;;;;;;69.78;10.68;;;6.80;99.90;;;;;;4880267;29;20182;-88
2022/02/14 00:40:29;;;;;;;70.75;10.55;;;6.80;99.90;;;;;;4879001;29;20178;-88
2022/02/14 00:42:57;;;;;;;69.40;14.23;;;6.90;99.90;;;;;;4878631;29;20230;-88
2022/02/14 00:45:23;;;;;;;70.80;16.25;;;6.90;99.90;;;;;;4878377;29;20285;-88
2022/02/14 00:47:49;;;;;;;72.20;14.37;;;7.00;99.90;;;;;;4880272;29;20265;-88
2022/02/14 00:50:18;;;;;;;75.00;12.37;;;7.00;99.90;;;;;;4879764;29;20281;-88
2022/02/14 00:52:43;;;;;;;72.72;13.07;;;7.10;99.90;;;;;;4879943;29;20536;-88
2022/02/14 00:55:11;;;;;;;73.10;12.60;;;7.10;99.90;;;;;;4878340;29;20668;-88
2022/02/14 00:57:37;;;;;;;73.07;13.15;;;7.10;99.90;;;;;;4879697;29;20175;-88
2022/02/14 01:00:05;;;;;;;69.87;10.97;;;7.20;99.90;;;;;;4879746;29;20170;-88
2022/02/14 01:02:31;;;;;;;69.35;11.90;;;7.30;99.90;;;;;;4879511;29;20182;-88
2022/02/14 01:04:57;;;;;;;72.90;11.70;;;7.30;99.90;;;;;;4878673;29;20201;-88
2022/02/14 01:07:23;;;;;;;70.33;12.07;;;7.20;99.90;;;;;;4878355;29;20455;-88
2022/02/14 01:09:49;;;;;;;69.40;10.30;;;7.20;99.90;;;;;;4878315;29;20541;-88
2022/02/14 01:12:15;;;;;;;69.25;11.07;;;7.20;99.90;;;;;;4879878;29;20178;-88
2022/02/14 01:14:41;;;;;;;69.35;11.52;;;7.20;99.90;;;;;;4878830;29;20174;-88
2022/02/14 01:17:09;;;;;;;72.10;11.27;;;7.20;99.90;;;;;;4879585;29;20248;-88
2022/02/14 01:19:35;;;;;;;70.40;9.80;;;7.20;99.90;;;;;;4879910;29;20462;-88
2022/02/14 01:22:01;;;;;;;70.38;9.15;;;7.20;99.90;;;;;;4878303;29;20556;-88
2022/02/14 01:24:26;;;;;;;67.50;10.40;;;7.20;99.90;;;;;;4878209;29;20269;-88
2022/02/14 01:26:52;;;;;;;73.73;12.13;;;7.20;99.90;;;;;;4878159;29;20200;-88
2022/02/14 01:29:18;;;;;;;70.53;10.50;;;7.20;99.90;;;;;;4878936;29;20222;-88
2022/02/14 01:31:47;;;;;;;71.77;9.50;;;7.20;99.90;;;;;;4878500;29;20411;-88
2022/02/14 01:34:13;;;;;;;73.90;9.32;;;7.20;99.90;;;;;;4882472;29;20464;-88
2022/02/14 01:36:39;;;;;;;68.38;7.13;;;7.20;99.90;;;;;;4881726;29;20201;-88
2022/02/14 01:39:05;;;;;;;76.90;9.00;;;7.10;99.90;;;;;;4883387;29;20246;-88
2022/02/14 01:41:30;;;;;;;70.27;10.80;;;7.10;99.90;;;;;;4882952;29;20175;-88
2022/02/14 01:43:57;;;;;;;68.27;7.57;;;7.00;99.90;;;;;;4881758;29;20497;-88
2022/02/14 01:46:23;;;;;;;72.25;8.65;;;7.00;99.90;;;;;;4881817;29;20214;-88
2022/02/14 01:48:51;;;;;;;68.10;9.07;;;7.00;99.90;;;;;;4882963;29;20206;-88
2022/02/14 01:51:22;;;;;;;75.35;10.65;;;6.90;99.90;;;;;;4883032;29;20867;-88
2022/02/14 01:53:50;;;;;;;74.30;11.02;;;6.90;99.90;;;;;;4882845;29;20725;-88
2022/02/14 01:56:15;;;;;;;71.32;10.32;;;6.90;99.90;;;;;;4881390;29;20210;-88
2022/02/14 01:58:41;;;;;;;70.20;11.77;;;6.90;99.90;;;;;;4881441;29;20226;-88
2022/02/14 02:01:07;;;;;;;69.20;12.10;;;6.90;99.90;;;;;;4884604;29;20185;-88
2022/02/14 02:03:33;;;;;;;70.90;13.68;;;6.90;99.90;;;;;;4882317;29;20170;-88
2022/02/14 02:06:00;;;;;;;70.40;9.87;;;7.00;99.90;;;;;;4882627;29;20197;-88
2022/02/14 02:08:28;;;;;;;70.05;11.93;;;7.00;99.90;;;;;;4882664;29;20178;-88
2022/02/14 02:12:22;;;;;;;74.07;13.88;;;7.00;99.90;;;;;;4881637;29;20201;-88
2022/02/14 02:13:52;;;;;;;70.32;12.85;;;7.00;99.90;;;;;;4882335;29;20175;-88
2022/02/14 02:16:18;;;;;;;79.88;13.05;;;7.00;99.90;;;;;;4881186;29;20190;-88
2022/02/14 02:18:43;;;;;;;72.70;8.27;;;7.10;99.90;;;;;;4882652;29;20162;-88
2022/02/14 02:21:12;;;;;;;71.13;11.67;;;7.10;99.90;;;;;;4881223;29;20423;-88
2022/02/14 02:23:41;;;;;;;68.85;11.45;;;7.20;99.90;;;;;;4882547;29;20175;-88
2022/02/14 02:26:07;;;;;;;69.63;12.40;;;7.20;99.90;;;;;;4882417;29;20230;-88
2022/02/14 02:28:34;;;;;;;70.00;12.97;;;7.30;99.90;;;;;;4882380;29;20208;-88
2022/02/14 02:31:04;;;;;;;69.75;9.88;;;7.30;99.90;;;;;;4880996;29;20274;-87
2022/02/14 02:33:30;;;;;;;68.78;9.20;;;7.40;99.90;;;;;;4882114;29;20173;-88
2022/02/14 02:35:56;;;;;;;68.70;10.30;;;7.40;99.90;;;;;;4881021;29;20193;-88
2022/02/14 02:38:23;;;;;;;71.20;9.93;;;7.40;99.90;;;;;;4882048;29;20249;-88
2022/02/14 02:40:49;;;;;;;75.70;8.52;;;7.40;99.90;;;;;;4882071;29;20174;-88
2022/02/14 02:43:17;;;;;;;68.30;9.82;;;7.40;99.90;;;;;;4882383;29;20231;-87
2022/02/14 02:45:46;;;;;;;69.88;11.60;;;7.40;99.90;;;;;;4881080;29;20186;-88
2022/02/14 02:48:12;;;;;;;71.65;10.13;;;7.50;99.90;;;;;;4882081;29;20167;-87
2022/02/14 02:51:02;;;;;;;69.55;9.27;;;7.50;99.90;;;;;;4881839;29;20226;-88
2022/02/14 02:53:26;;;;;;;68.10;7.97;;;7.60;99.90;;;;;;4881859;29;20206;-88
2022/02/14 02:55:52;;;;;;;71.70;8.70;;;7.60;99.90;;;;;;4880553;29;20722;-88
2022/02/14 02:58:18;;;;;;;71.63;10.13;;;7.60;99.90;;;;;;4880603;29;20516;-88
2022/02/14 03:00:43;;;;;;;67.03;6.70;;;7.60;99.90;;;;;;4882089;29;20175;-87
2022/02/14 03:03:09;;;;;;;70.93;7.23;;;7.60;99.90;;;;;;4882161;29;20222;-88
2022/02/14 03:05:35;;;;;;;68.27;8.30;;;7.70;99.90;;;;;;4880463;29;20190;-87
2022/02/14 03:08:00;;;;;;;69.07;7.80;;;7.70;99.90;;;;;;4881321;29;20259;-87
2022/02/14 03:10:26;;;;;;;67.77;8.13;;;7.80;99.90;;;;;;4880563;29;20202;-87
2022/02/14 03:12:52;;;;;;;66.43;6.60;;;7.80;99.90;;;;;;4880737;29;20175;-87
2022/02/14 03:15:17;;;;;;;66.80;7.37;;;7.80;99.90;;;;;;4881089;29;20194;-87
2022/02/14 03:17:43;;;;;;;68.67;7.40;;;7.90;99.80;;;;;;4880689;29;20227;-87
2022/02/14 03:20:09;;;;;;;65.97;6.93;;;7.90;99.40;;;;;;4880530;29;20185;-87
2022/02/14 03:22:35;;;;;;;66.50;6.10;;;8.00;98.20;;;;;;4882128;29;20173;-87
2022/02/14 03:25:01;;;;;;;67.57;6.53;;;8.00;98.60;;;;;;4881549;29;20281;-88
2022/02/14 03:27:26;;;;;;;67.87;6.53;;;8.00;98.10;;;;;;4881694;29;20221;-88
2022/02/14 03:29:52;;;;;;;67.23;7.50;;;8.00;98.20;;;;;;4881196;29;20198;-87
2022/02/14 03:32:18;;;;;;;67.27;7.40;;;8.00;98.00;;;;;;4881308;29;20167;-87
2022/02/14 03:34:43;;;;;;;68.60;8.00;;;8.10;97.50;;;;;;4881250;29;20174;-87
2022/02/14 03:37:12;;;;;;;74.23;8.47;;;8.10;98.10;;;;;;4881386;29;20202;-88
2022/02/14 03:39:41;;;;;;;69.60;7.32;;;8.10;96.80;;;;;;4881425;29;20194;-87
2022/02/14 03:42:07;;;;;;;67.57;6.45;;;8.10;96.20;;;;;;4879977;29;20179;-88
2022/02/14 03:44:33;;;;;;;67.83;7.83;;;8.10;96.70;;;;;;4881091;29;20170;-88
2022/02/14 03:46:58;;;;;;;70.90;7.77;;;8.10;96.30;;;;;;4880039;29;20781;-87
2022/02/14 03:49:27;;;;;;;67.40;6.80;;;8.00;96.50;;;;;;4880958;29;20450;-88
2022/02/14 03:51:53;;;;;;;68.53;6.63;;;8.00;96.10;;;;;;4879664;29;20779;-88
2022/02/14 03:54:19;;;;;;;67.70;6.67;;;8.00;97.70;;;;;;4880807;29;20182;-88
2022/02/14 03:56:44;;;;;;;70.97;7.70;;;7.90;98.00;;;;;;4880926;29;20247;-88
2022/02/14 03:59:14;;;;;;;68.30;6.53;;;7.90;98.40;;;;;;4880942;29;20167;-88
2022/02/14 04:01:40;;;;;;;75.88;6.93;;;7.90;98.80;;;;;;4880856;29;20215;-88
2022/02/14 04:04:07;;;;;;;71.60;7.60;;;7.80;98.50;;;;;;4880711;29;20170;-88
2022/02/14 04:06:36;;;;;;;66.72;4.97;;;7.80;99.60;;;;;;4879455;29;20269;-88
2022/02/14 04:09:01;;;;;;;67.25;5.43;;;7.80;99.60;;;;;;4879161;29;20658;-88
2022/02/14 04:11:27;;;;;;;69.43;7.83;;;7.70;99.90;;;;;;4880411;29;20170;-88
2022/02/14 04:13:53;;;;;;;67.20;7.30;;;7.60;99.90;;;;;;4879352;29;20175;-88
2022/02/14 04:16:18;;;;;;;67.40;6.70;;;7.60;99.90;;;;;;4880204;29;20187;-88
2022/02/14 04:18:44;;;;;;;67.90;5.97;;;7.60;99.90;;;;;;4880312;29;20591;-88
2022/02/14 04:21:10;;;;;;;66.07;5.77;;;7.50;99.90;;;;;;4880180;29;20174;-88
2022/02/14 04:23:36;;;;;;;69.93;7.27;;;7.50;99.90;;;;;;4880170;29;20181;-88
2022/02/14 04:26:01;;;;;;;67.27;8.10;;;7.40;99.90;;;;;;4879507;29;20211;-88
2022/02/14 04:28:27;;;;;;;67.90;6.53;;;7.30;99.90;;;;;;4880245;29;20567;-88
2022/02/14 04:30:53;;;;;;;67.93;5.90;;;7.30;99.90;;;;;;4879970;29;20206;-88
2022/02/14 04:33:18;;;;;;;67.07;6.17;;;7.30;99.90;;;;;;4878788;29;20646;-88
2022/02/14 04:35:47;;;;;;;66.17;5.60;;;7.30;99.90;;;;;;4878648;29;20194;-88
2022/02/14 04:38:13;;;;;;;68.25;6.63;;;7.30;99.90;;;;;;4878809;29;20175;-88
2022/02/14 04:40:39;;;;;;;69.17;6.73;;;7.30;99.90;;;;;;4879593;29;20177;-88
2022/02/14 04:43:06;;;;;;;72.22;7.60;;;7.30;99.90;;;;;;4878888;29;20174;-88
2022/02/14 04:45:32;;;;;;;66.75;6.30;;;7.30;99.90;;;;;;4878811;29;20195;-88
2022/02/14 04:47:58;;;;;;;66.03;6.40;;;7.30;99.90;;;;;;4880034;29;20593;-88
2022/02/14 04:50:24;;;;;;;68.90;7.10;;;7.30;99.90;;;;;;4878498;29;20991;-88
2022/02/14 04:52:51;;;;;;;67.63;8.30;;;7.40;99.90;;;;;;4878546;29;20242;-88
2022/02/14 05:05:15;;;;;;;;;;;;;;;;;;;;;
2022/02/14 05:08:15;;;;;;;68.35;10.32;;;7.50;99.90;;;;;;4876356;29;20178;-91
2022/02/14 05:11:57;;;;;;;69.50;12.68;;;7.50;99.90;;;;;;4865263;29;20209;-91
2022/02/14 05:15:06;;;;;;;;;;;;;;;;;;;;;
2022/02/14 05:21:13;;;;;;;75.38;16.80;;;7.70;99.90;;;;;;4840289;29;20180;-91
2022/02/14 05:24:03;;;;;;;71.38;12.07;;;7.70;99.90;;;;;;4840295;29;20188;-91
2022/02/14 05:27:21;;;;;;;73.88;13.68;;;7.80;99.90;;;;;;4837235;29;20258;-91
2022/02/14 05:30:06;;;;;;;72.13;14.48;;;7.90;99.90;;;;;;4818232;29;20691;-91
2022/02/14 05:38:47;;;;;;;68.25;12.07;;;8.30;99.90;;;;;;4850952;27;20242;-91
2022/02/14 05:41:54;;;;;;;71.00;11.85;;;8.30;99.90;;;;;;4897651;29;20197;-91
2022/02/14 05:44:41;;;;;;;67.55;9.88;;;8.40;99.90;;;;;;4858968;29;20183;-91
2022/02/14 05:47:30;;;;;;;68.30;10.18;;;8.50;99.90;;;;;;4879660;29;20702;-91
2022/02/14 05:50:02;;;;;;;68.07;10.45;;;8.60;99.90;;;;;;4878134;29;20209;-91
2022/02/14 05:52:39;;;;;;;68.50;10.80;;;8.60;99.90;;;;;;4878836;29;20239;-91
2022/02/14 05:55:27;;;;;;;68.07;10.75;;;8.70;99.90;;;;;;4878319;29;20225;-91
2022/02/14 06:04:23;;;;;;;70.68;11.55;;;8.70;99.90;;;;;;4821616;29;20176;-91
2022/02/14 06:06:58;;;;;;;83.63;12.18;;;8.70;99.90;;;;;;4877466;29;20203;-91
2022/02/14 06:10:12;;;;;;;69.90;12.02;;;8.80;99.90;;;;;;4878896;29;20210;-91
2022/02/14 06:12:44;;;;;;;70.10;11.43;;;8.80;99.90;;;;;;4875326;29;20663;-91
2022/02/14 06:17:59;;;;;;;68.18;11.02;;;8.80;99.90;;;;;;4886353;29;20175;-90
2022/02/14 06:20:57;;;;;;;67.63;9.75;;;8.80;99.90;;;;;;4879678;29;20174;-90
2022/02/14 06:23:35;;;;;;;69.32;11.52;;;8.70;99.90;;;;;;4891532;29;20185;-90
2022/02/14 06:26:22;;;;;;;70.82;10.75;;;8.80;99.90;;;;;;4880503;29;20201;-90
2022/02/14 06:29:00;;;;;;;67.97;11.13;;;8.90;99.90;;;;;;4882424;29;20188;-90
2022/02/14 06:35:18;;;;;;;68.75;12.52;;;8.90;99.90;;;;;;4831117;29;20204;-90
2022/02/14 06:37:54;;;;;;;71.25;16.10;;;8.90;99.90;;;;;;4880462;29;20222;-90
2022/02/14 06:40:23;;;;;;;69.30;14.13;;;8.90;99.90;;;;;;4880290;29;20722;-90
2022/02/14 06:43:23;;;;;;;68.63;14.10;;;9.00;99.90;;;;;;4881524;29;20167;-90
2022/02/14 06:45:58;;;;;;;73.53;21.17;;;8.90;99.90;;;;;;4876754;29;20210;-91
2022/02/14 06:58:25;;;;;;;67.32;11.65;;;8.90;99.90;;;;;;4852381;29;20659;-91
2022/02/14 07:00:55;;;;;;;69.82;16.42;;;8.90;99.90;;;;;;4880455;29;20186;-90
2022/02/14 07:10:58;;;;;;;71.95;18.35;;;9.00;99.90;;;;;;4846559;27;20276;-89
2022/02/14 07:14:11;;;;;;;;;;;;;;;;;;;;;
2022/02/14 07:16:47;;;;;;;71.65;15.55;;;9.10;99.90;;;;;;5071171;23;20237;-89
2022/02/14 07:19:45;;;;;;;75.53;18.90;;;9.10;99.90;;;;;;4864802;29;20222;-88
2022/02/14 07:22:19;;;;;;;76.78;22.27;;;9.20;99.90;;;;;;4879894;29;20194;-88
2022/02/14 07:25:28;;;;;;;73.05;23.10;;;9.20;99.90;;;;;;4880928;29;20193;-88
2022/02/14 07:27:56;;;;;;;71.43;20.88;;;9.30;99.90;;;;;;4880360;29;20178;-88
2022/02/14 07:30:25;;;;;;;72.20;20.90;;;9.30;99.90;;;;;;4879604;29;20233;-88
2022/02/14 07:32:57;;;;;;;72.13;21.58;;;9.40;99.90;;;;;;4881027;29;20159;-89
2022/02/14 07:38:12;;;;;;;71.72;22.50;;;9.40;99.90;;;;;;4878247;29;20269;-88
2022/02/14 07:40:48;;;;;;;74.45;20.00;;;9.40;99.90;;;;;;4884521;29;20531;-88
2022/02/14 07:44:16;;;;;;;;;;;;;;;;;;;;;
2022/02/14 07:47:05;;;;;;;70.20;16.17;;;9.50;99.90;;;;;;4890598;23;20248;-88
2022/02/14 07:49:52;;;;;;;71.47;12.18;;;9.60;99.90;;;;;;4879418;29;20202;-89
2022/02/14 07:52:37;;;;;;;71.45;12.60;;;9.60;99.90;;;;;;4879296;29;20179;-89
2022/02/14 07:55:26;;;;;;;;;;;;;;;;;;;;;
2022/02/14 07:58:01;;;;;;;72.07;23.10;;;9.70;99.90;;;;;;4881237;29;20155;-89
2022/02/14 08:00:56;;;;;;;71.38;20.60;;;9.80;99.90;;;;;;4879287;29;20313;-88
2022/02/14 08:03:45;;;;;;;72.05;21.17;;;9.80;99.90;;;;;;4880131;29;20170;-88
2022/02/14 08:06:27;;;;;;;70.32;14.45;;;9.90;99.90;;;;;;4880435;29;20532;-89
2022/02/14 08:09:28;;;;;;;70.80;15.23;;;9.90;99.90;;;;;;4879148;29;20183;-89
2022/02/14 08:12:14;;;;;;;70.10;16.65;;;10.00;99.90;;;;;;4847269;29;20194;-88
2022/02/14 08:15:07;;;;;;;69.90;15.05;;;10.00;99.90;;;;;;4880017;29;20572;-89
2022/02/14 08:17:43;;;;;;;71.38;21.95;;;10.00;99.90;;;;;;4860079;29;20190;-89
2022/02/14 08:20:16;;;;;;;69.93;16.23;;;10.10;99.90;;;;;;4860058;29;20205;-89
2022/02/14 08:23:17;;;;;;;67.60;9.05;;;10.10;99.90;;;;;;4867174;29;20185;-89
2022/02/14 08:25:48;;;;;;;68.00;12.85;;;10.30;99.90;;;;;;4841100;29;20195;-88
2022/02/14 08:28:17;;;;;;;67.60;10.25;;;10.30;99.90;;;;;;4873542;29;20187;-88
2022/02/14 08:31:29;;;;;;;71.00;17.83;;;10.40;99.90;;;;;;4879498;29;20612;-88
2022/02/14 08:34:24;;;;;;;68.30;13.60;;;10.50;99.90;;;;;;4879312;29;20186;-88
2022/02/14 08:36:58;;;;;;;70.82;11.73;;;10.50;99.90;;;;;;4877735;29;20198;-89
2022/02/14 08:40:02;;;;;;;68.07;12.05;;;10.60;99.90;;;;;;4879197;29;20234;-89
2022/02/14 08:45:51;;;;;;;89.53;14.95;;;10.80;99.90;;;;;;4840361;29;20293;-89
2022/02/14 08:48:17;;;;;;;71.00;14.03;;;10.90;99.90;;;;;;4871919;29;20183;-88
2022/02/14 08:50:46;;;;;;;67.72;10.98;;;10.90;99.90;;;;;;4878375;29;20203;-89
2022/02/14 08:56:53;;;;;;;68.43;11.75;;;10.90;99.90;;;;;;4874386;29;20281;-89
2022/02/14 09:00:24;;;;;;;69.22;13.50;;;11.00;99.90;;;;;;4878648;29;20201;-89
2022/02/14 09:02:57;;;;;;;71.05;14.27;;;11.00;99.90;;;;;;4872737;29;20696;-89
2022/02/14 09:05:39;;;;;;;68.95;13.35;;;11.10;99.90;;;;;;4879139;29;20202;-89
2022/02/14 09:08:08;;;;;;;69.55;13.07;;;11.10;99.90;;;;;;4879162;29;20610;-89
2022/02/14 09:10:35;;;;;;;68.35;12.13;;;11.10;99.90;;;;;;4879422;29;20193;-89
2022/02/14 09:14:11;;;;;;;69.22;14.60;;;11.20;99.90;;;;;;4879272;29;20167;-89
2022/02/14 09:16:40;;;;;;;70.40;13.88;;;11.30;99.90;;;;;;4807238;29;20200;-89
2022/02/14 09:19:15;;;;;;;68.18;13.15;;;11.30;99.90;;;;;;4822304;29;20176;-89
2022/02/14 09:21:42;;;;;;;69.13;15.38;;;11.30;99.90;;;;;;4845000;29;20580;-89
2022/02/14 09:24:14;;;;;;;69.25;14.65;;;11.40;99.90;;;;;;4879136;29;20181;-89
2022/02/14 09:26:58;;;;;;;69.75;13.75;;;11.40;99.90;;;;;;4879463;29;20269;-88
2022/02/14 09:29:36;;;;;;;68.00;13.27;;;11.40;99.90;;;;;;4878050;29;20174;-89
2022/02/14 09:32:14;;;;;;;69.65;13.90;;;11.40;99.90;;;;;;4878034;29;20177;-89
2022/02/14 09:35:10;;;;;;;67.63;11.57;;;11.40;99.90;;;;;;4878979;29;20581;-89
2022/02/14 09:38:08;;;;;;;67.80;11.93;;;11.40;99.90;;;;;;4878344;29;20199;-89
2022/02/14 09:40:51;;;;;;;69.10;11.13;;;11.50;99.90;;;;;;4879255;29;20150;-89
2022/02/14 09:43:34;;;;;;;67.35;10.07;;;11.50;99.90;;;;;;4877972;29;20170;-89
2022/02/14 09:46:23;;;;;;;75.40;18.58;;;11.60;99.90;;;;;;4877798;29;20229;-89
2022/02/14 09:49:30;;;;;;;66.88;7.88;;;11.60;99.90;;;;;;4879008;29;20170;-89
2022/02/14 09:52:13;;;;;;;67.13;10.07;;;11.60;99.90;;;;;;4877703;29;20214;-89
2022/02/14 09:54:45;;;;;;;73.53;12.23;;;11.70;99.90;;;;;;4880072;29;20186;-89
2022/02/14 09:57:34;;;;;;;67.65;10.07;;;11.70;99.90;;;;;;4881502;29;20159;-89
2022/02/14 10:00:10;;;;;;;;;;;;;;;;;;;;;
2022/02/14 10:03:31;;;;;;;70.07;15.95;;;11.60;99.90;;;;;;4883443;29;20166;-89
2022/02/14 10:06:30;;;;;;;67.68;10.45;;;11.50;99.90;;;;;;4881022;29;20292;-89
2022/02/14 10:09:25;;;;;;;68.00;9.68;;;11.50;99.90;;;;;;4880934;29;20190;-89
2022/02/14 10:12:23;;;;;;;68.93;14.57;;;11.50;99.90;;;;;;4881221;29;20183;-88
2022/02/14 10:15:05;;;;;;;68.35;11.48;;;11.70;99.90;;;;;;4882359;29;20154;-89
2022/02/14 10:17:59;;;;;;;67.88;12.82;;;11.80;99.90;;;;;;4882608;29;20572;-89
2022/02/14 10:20:31;;;;;;;68.07;12.45;;;12.00;99.90;;;;;;4880996;29;20189;-89
2022/02/14 10:23:24;;;;;;;67.28;10.68;;;12.10;99.90;;;;;;4882322;29;20151;-89
2022/02/14 10:26:20;;;;;;;;;;;;;;;;;;;;;
2022/02/14 10:28:52;;;;;;;67.22;9.02;;;12.20;99.90;;;;;;4882036;29;20639;-89
2022/02/14 11:03:15;;;;;;;68.28;16.50;;;11.60;90.70;;;;;;4885063;29;20172;-84
2022/02/14 11:06:16;;;;;;;67.60;14.00;;;11.80;92.70;;;;;;4885248;29;20193;-86
2022/02/14 11:08:47;;;;;;;65.63;6.13;;;11.90;91.20;;;;;;4851032;29;20636;-86
2022/02/14 11:11:18;;;;;;;66.85;10.30;;;11.90;88.50;;;;;;4879503;29;20214;-84
2022/02/14 11:13:50;;;;;;;66.78;7.00;;;11.90;89.40;;;;;;4885234;29;20188;-84
2022/02/14 11:16:56;;;;;;;64.68;5.13;;;11.80;86.30;;;;;;4886081;29;20214;-85
2022/02/14 11:20:16;;;;;;;65.13;6.40;;;11.70;86.20;;;;;;4881494;29;20182;-85
2022/02/14 11:30:17;;;;;;;68.55;13.45;;;11.80;90.10;;;;;;4881880;29;20170;-87
2022/02/14 11:33:12;;;;;;;66.50;9.02;;;12.10;93.30;;;;;;4848229;29;20183;-87
2022/02/14 11:36:33;;;;;;;66.85;5.10;;;12.30;80.40;;;;;;4886843;29;20220;-87
2022/02/14 11:42:22;;;;;;;65.35;6.13;;;12.60;59.40;;;;;;4885845;29;20189;-87
2022/02/14 11:45:12;;;;;;;64.95;7.35;;;12.60;64.70;;;;;;4885997;29;20184;-87
2022/02/14 11:51:24;;;;;;;69.15;16.50;;;12.60;52.50;;;;;;4868462;29;20223;-86
2022/02/14 11:57:06;;;;;;;66.78;12.85;;;12.80;46.60;;;;;;4884824;29;20210;-87
2022/02/14 12:00:01;;;;;;;67.82;13.40;;;12.90;48.40;;;;;;4879900;29;20626;-87
2022/02/14 12:02:30;;;;;;;68.32;13.65;;;12.90;54.10;;;;;;4886521;29;20174;-87
2022/02/14 12:04:56;;;;;;;65.00;5.65;;;12.80;50.60;;;;;;4887440;29;20190;-86
2022/02/14 12:07:56;;;;;;;73.93;15.10;;;12.80;42.60;;;;;;4885715;29;20170;-86
2022/02/14 12:10:32;;;;;;;63.72;4.43;;;12.70;39.10;;;;;;4886355;29;20147;-86
2022/02/14 12:13:01;;;;;;;65.28;5.72;;;12.80;47.60;;;;;;4885996;29;20173;-87
2022/02/14 12:20:58;;;;;;;64.07;5.60;;;13.40;48.60;;;;;;4886984;29;20246;-84
2022/02/14 12:23:39;;;;;;;63.83;3.33;;;13.30;37.10;;;;;;4886618;29;20543;-86
2022/02/14 12:26:14;;;;;;;64.63;4.50;;;13.10;44.40;;;;;;4885009;29;20511;-86
2022/02/14 12:31:42;;;;;;;64.80;3.58;;;12.70;44.90;;;;;;4886614;29;20165;-86
2022/02/14 12:34:11;;;;;;;64.13;5.00;;;12.60;48.70;;;;;;4885851;29;20231;-86
2022/02/14 12:36:37;;;;;;;64.43;5.65;;;12.60;45.30;;;;;;4885851;29;20233;-86
2022/02/14 12:39:36;;;;;;;63.80;3.43;;;12.60;40.20;;;;;;4884693;29;20174;-86
2022/02/14 12:42:43;;;;;;;63.92;3.80;;;12.50;43.30;;;;;;4885817;29;20174;-87
2022/02/14 12:45:24;;;;;;;63.60;2.90;;;12.40;44.60;;;;;;4840438;29;20202;-86
2022/02/14 12:47:59;;;;;;;63.38;2.85;;;12.40;44.10;;;;;;4884961;29;20178;-86
2022/02/14 12:50:51;;;;;;;65.55;4.28;;;12.50;46.00;;;;;;4885646;29;20437;-86
2022/02/14 12:53:43;;;;;;;65.97;5.30;;;12.40;41.20;;;;;;4881018;29;20299;-86
2022/02/14 12:56:43;;;;;;;68.20;6.32;;;12.40;37.00;;;;;;4883581;29;20241;-86
2022/02/14 12:59:18;;;;;;;64.70;7.57;;;12.40;36.30;;;;;;4883965;29;20257;-86
2022/02/14 13:01:48;;;;;;;65.07;5.85;;;12.40;34.30;;;;;;4884539;29;20538;-87
2022/02/14 13:04:21;;;;;;;67.70;8.55;;;12.40;31.80;;;;;;4885604;29;20678;-87
2022/02/14 13:07:19;;;;;;;65.97;7.85;;;12.40;33.90;;;;;;4885895;29;20213;-86
2022/02/14 13:10:27;;;;;;;70.88;10.40;;;12.60;34.50;;;;;;4884323;29;20202;-87
2022/02/14 13:13:15;;;;;;;63.72;5.38;;;12.70;32.20;;;;;;4882868;29;20178;-85
2022/02/14 13:16:50;;;;;;;63.40;5.20;;;12.60;25.10;;;;;;4883807;29;20611;-87
2022/02/14 13:19:19;;;;;;;64.45;5.15;;;12.50;20.80;;;;;;4816765;29;20192;-87
2022/02/14 13:21:51;;;;;;;63.90;5.53;;;12.60;29.80;;;;;;4828086;29;20703;-87
2022/02/14 13:24:45;;;;;;;64.88;4.50;;;12.60;26.50;;;;;;4845827;29;20271;-86
2022/02/14 13:28:01;;;;;;;63.50;4.45;;;12.60;27.10;;;;;;4845057;29;20192;-86
2022/02/14 13:30:46;;;;;;;63.50;3.70;;;12.40;23.90;;;;;;4873919;29;20214;-86
2022/02/14 13:37:36;;;;;;;64.63;6.45;;;12.40;29.60;;;;;;4971492;23;20307;-85
2022/02/14 13:41:06;;;;;;;;;;;;;;;;;;;;;
2022/02/14 13:43:52;;;;;;;65.90;7.90;;;12.40;37.30;;;;;;4866054;29;20644;-85
2022/02/14 13:50:34;;;;;;;67.22;6.35;;;12.30;38.80;;;;;;4846253;29;20176;-84
2022/02/14 13:53:35;;;;;;;65.00;7.63;;;12.30;39.90;;;;;;4831726;29;20199;-85
2022/02/14 13:56:46;;;;;;;65.72;6.05;;;12.30;30.80;;;;;;4875538;23;20277;-85
2022/02/14 14:03:08;;;;;;;63.40;5.00;;;12.30;27.50;;;;;;4849197;29;20294;-87
2022/02/14 14:06:09;;;;;;;66.40;5.57;;;12.20;26.30;;;;;;4848337;29;20601;-87
2022/02/14 14:09:42;;;;;;;63.53;4.40;;;12.30;28.90;;;;;;4849416;29;20179;-86
2022/02/14 14:12:53;;;;;;;63.80;3.70;;;12.30;28.60;;;;;;4840539;29;20262;-87
2022/02/14 14:15:25;;;;;;;64.07;5.22;;;12.30;27.00;;;;;;4845972;29;20611;-86
2022/02/14 14:18:37;;;;;;;66.32;5.85;;;12.30;29.60;;;;;;4835677;29;20207;-87
2022/02/14 14:22:03;;;;;;;64.43;5.03;;;12.30;28.80;;;;;;4830121;29;20208;-86
2022/02/14 14:24:56;;;;;;;66.82;8.80;;;12.20;24.90;;;;;;4828456;29;20252;-86
2022/02/14 14:28:36;;;;;;;65.28;4.30;;;12.00;20.40;;;;;;4867801;29;20187;-87
2022/02/14 14:31:56;;;;;;;67.05;4.57;;;12.00;25.10;;;;;;4840710;29;20271;-87
2022/02/14 14:42:25;;;;;;;;;;;;;;;;;;;;;
2022/02/14 14:45:23;;;;;;;67.28;13.40;;;12.30;21.80;;;;;;4840445;29;20518;-87
2022/02/14 14:48:01;;;;;;;68.50;12.23;;;12.30;20.30;;;;;;4775481;29;20180;-87
2022/02/14 14:54:30;;;;;;;69.07;16.05;;;12.20;22.00;;;;;;4810845;29;20181;-87
2022/02/14 14:57:04;;;;;;;69.63;14.20;;;12.20;20.70;;;;;;4819880;29;20208;-86
2022/02/14 15:00:19;;;;;;;70.93;18.75;;;12.30;19.30;;;;;;4829518;29;20215;-86
2022/02/14 15:03:02;;;;;;;66.63;13.55;;;12.20;20.60;;;;;;4810936;29;20180;-86
2022/02/14 15:09:27;;;;;;;;;;;;;;;;;;;;;
2022/02/14 15:12:44;;;;;;;73.47;16.80;;;12.20;21.60;;;;;;4798071;29;20212;-87
2022/02/14 15:23:08;;;;;;;66.75;9.95;;;12.30;20.50;;;;;;4790025;30;20177;-86
2022/02/14 15:26:13;;;;;;;63.40;4.45;;;12.30;25.00;;;;;;4738258;30;20219;-86
2022/02/14 15:29:13;;;;;;;63.92;4.70;;;12.10;26.50;;;;;;4724014;30;20190;-87
2022/02/14 15:31:48;;;;;;;68.20;11.18;;;12.00;29.00;;;;;;4797601;29;20181;-86
2022/02/14 15:34:22;;;;;;;68.57;10.50;;;12.00;24.90;;;;;;4837601;29;20658;-85
2022/02/14 15:37:02;;;;;;;64.93;7.90;;;12.00;25.70;;;;;;4848163;29;20215;-86
2022/02/14 15:39:28;;;;;;;66.15;5.18;;;11.90;24.80;;;;;;4848652;29;20191;-86
2022/02/14 15:42:05;;;;;;;64.07;6.87;;;11.70;26.20;;;;;;4850126;29;20168;-85
2022/02/14 15:48:32;;;;;;;67.60;12.80;;;11.80;23.40;;;;;;4792433;30;20174;-86
2022/02/14 15:51:30;;;;;;;66.78;5.07;;;11.70;24.60;;;;;;4792344;29;20552;-86
2022/02/14 15:57:44;;;;;;;65.78;6.70;;;11.60;31.40;;;;;;4914807;23;20262;-86
2022/02/14 16:00:19;;;;;;;66.95;7.65;;;11.30;40.30;;;;;;4887818;29;20198;-86
2022/02/14 16:02:45;;;;;;;64.57;5.00;;;11.20;46.30;;;;;;4887185;29;20543;-86
2022/02/14 16:05:35;;;;;;;64.88;5.15;;;11.20;50.10;;;;;;4886344;29;20199;-86
2022/02/14 16:08:22;;;;;;;65.82;5.35;;;11.30;49.40;;;;;;4885717;29;20290;-87
2022/02/14 16:10:55;;;;;;;64.47;4.90;;;11.30;48.90;;;;;;4886365;29;20202;-86
2022/02/14 16:13:31;;;;;;;63.92;4.85;;;11.20;51.00;;;;;;4870616;29;20186;-86
2022/02/14 16:16:00;;;;;;;65.53;5.38;;;11.20;53.00;;;;;;4885248;29;20205;-86
2022/02/14 16:19:06;;;;;;;;;;;;;;;;;;;;;
2022/02/14 16:22:01;;;;;;;69.50;6.53;;;11.10;54.90;;;;;;4886876;29;20291;-87
2022/02/14 16:24:38;;;;;;;64.85;5.05;;;11.00;56.30;;;;;;4886549;29;20206;-86
2022/02/14 16:27:25;;;;;;;64.25;5.10;;;11.10;56.60;;;;;;4885923;29;20189;-86
2022/02/14 16:29:53;;;;;;;64.38;5.65;;;11.00;55.00;;;;;;4885493;29;20175;-86
2022/02/14 16:32:49;;;;;;;66.13;7.32;;;10.80;58.10;;;;;;4885033;29;20206;-86